CDT,Max TemperatureF,Mean TemperatureF,Min TemperatureF,Max Dew PointF,MeanDew PointF,Min DewpointF,Max Humidity, Mean Humidity, Min Humidity, Max Sea Level PressureIn, Mean Sea Level PressureIn, Min Sea Level PressureIn, Max VisibilityMiles, Mean VisibilityMiles, Min VisibilityMiles, Max Wind SpeedMPH, Mean Wind SpeedMPH, Max Gust SpeedMPH,PrecipitationIn, CloudCover, Events, WindDirDegrees
2013-10-1,69,60,50,54,42,32,82,53,25,30.00,29.81,29.55,10,10,10,22,11,28,0.00,0,,252
2013-10-2,69,56,42,52,44,34,100,74,27,30.02,29.96,29.87,10,10,5,21,8,28,0.59,3,Rain-Thunderstorm,89
2013-10-3,53,50,48,52,51,48,100,96,88,30.00,29.92,29.89,10,8,1,17,12,25,0.31,7,Rain-Thunderstorm,34
2013-10-4,53,52,50,52,50,48,100,93,88,30.02,29.96,29.83,10,8,2,29,17,36,0.17,8,Rain-Thunderstorm,52
2013-10-5,55,48,42,52,46,39,100,88,62,29.83,29.78,29.74,10,8,2,25,16,34,0.02,5,Rain-Thunderstorm,100
2013-10-6,57,50,44,48,44,39,100,87,59,29.88,29.80,29.73,10,8,2,20,9,26,0.15,6,Rain,326
2013-10-7,66,52,39,45,40,36,93,66,34,29.98,29.92,29.85,10,10,7,13,7,17,0.00,0,,247
2013-10-8,77,60,44,46,44,39,93,57,29,29.91,29.78,29.71,10,10,10,30,14,38,0.00,0,,166
2013-10-9,73,62,51,54,49,46,82,65,43,29.99,29.95,29.84,10,10,10,18,10,24,0.00,0,,157
2013-10-10,78,66,53,54,50,46,82,61,36,29.99,29.88,29.79,10,10,10,23,11,29,0.00,0,,147
2013-10-11,66,58,51,59,53,45,94,78,49,29.81,29.66,29.50,10,10,5,30,15,37,0.44,3,Rain-Thunderstorm,141
2013-10-12,51,45,39,43,42,36,93,84,71,30.19,29.89,29.64,10,10,5,26,17,34,0.06,6,Rain,248
2013-10-13,57,46,35,39,35,32,93,71,38,30.42,30.34,30.20,10,10,10,9,5,,0.00,1,,252
2013-10-14,46,44,42,45,40,37,100,85,76,30.37,30.18,29.90,10,10,7,28,11,34,0.73,5,Rain,90
2013-10-15,46,44,42,45,43,39,100,93,81,29.95,29.81,29.72,10,8,2,23,18,32,0.74,8,Rain,19
2013-10-16,55,44,33,39,36,34,100,78,47,29.98,29.93,29.85,10,9,0,14,9,20,0.00,3,Fog-Snow,263
2013-10-17,46,40,35,45,38,34,100,92,81,29.93,29.85,29.79,10,10,4,16,7,22,0.28,6,Rain,290
2013-10-18,50,40,30,37,33,28,100,82,46,29.99,29.92,29.81,10,10,10,14,7,25,0.00,3,Rain,265
2013-10-19,41,36,30,37,32,28,100,86,65,29.80,29.74,29.68,10,10,5,17,9,25,0.04,5,Rain,266
2013-10-20,37,34,32,36,32,21,100,90,60,29.92,29.73,29.61,10,8,2,18,7,29,0.13,8,Rain-Snow,67
2013-10-21,37,32,26,25,22,19,93,69,52,29.96,29.94,29.92,10,10,10,21,14,26,0.00,5,,291
2013-10-22,39,32,24,30,27,23,100,81,65,30.05,30.00,29.95,10,10,10,14,5,17,0.00,6,,304
2013-10-23,39,34,28,28,23,19,93,70,45,30.14,30.05,30.00,10,10,10,20,9,24,0.00,7,,309
2013-10-24,39,32,26,32,29,25,100,84,70,30.31,30.24,30.13,10,10,10,15,8,16,0.00,6,Snow,282
2013-10-25,60,40,21,43,32,21,100,75,48,30.30,30.03,29.78,10,10,10,25,10,32,0.00,0,,224
2013-10-26,44,36,26,32,28,25,93,72,57,30.14,30.05,29.88,10,10,10,23,14,30,0.00,2,,297
2013-10-27,53,40,26,34,28,25,100,71,41,30.18,29.92,29.78,10,10,10,17,9,26,0.00,0,,293
2013-10-28,39,32,24,28,22,19,86,70,45,30.45,30.38,30.18,10,10,10,17,13,22,0.00,0,,44
2013-10-29,33,30,28,32,28,21,100,90,74,30.41,30.24,30.08,10,7,2,13,8,,0.06,6,Snow,63
2013-10-30,41,37,33,41,37,32,100,98,93,30.09,29.89,29.69,5,2,0,9,6,,0.04,8,Fog-Rain-Snow,67
2013-10-31,39,37,35,37,37,34,100,99,93,29.68,29.52,29.43,7,3,0,12,8,16,0.00,8,Fog-Rain,279